Observation data for Northfield on 12/08/2019      Previous  Date       Current Mesonet Observations  Soil Data  Daily Summary Page  Observations in Plain Language
KNOR 080600Z 18009KT 10/02 A2995 RMK A01 T01010021  RH  058%=      5-min Rain = 0
KNOR 080605Z 18009KT 10/02 A2995 RMK A01 T00990021  RH  059%=      5-min Rain = 0
KNOR 080610Z 19008KT 10/02 A2995 RMK A01 T00980021  RH  060%=      5-min Rain = 0
KNOR 080615Z 19007KT 10/02 A2995 RMK A01 T00970021  RH  060%=      5-min Rain = 0
KNOR 080620Z 20006KT 09/02 A2995 RMK A01 T00940021  RH  061%=      5-min Rain = 0
KNOR 080625Z 20006KT 09/02 A2995 RMK A01 T00920020  RH  062%=      5-min Rain = 0
KNOR 080630Z 20007KT 09/02 A2995 RMK A01 T00890020  RH  063%=      5-min Rain = 0
KNOR 080635Z 21008KT 09/02 A2995 RMK A01 T00870020  RH  064%=      5-min Rain = 0
KNOR 080640Z 21008KT 09/02 A2994 RMK A01 T00870020  RH  064%=      5-min Rain = 0
KNOR 080645Z 21006KT 09/02 A2994 RMK A01 T00920021  RH  062%=      5-min Rain = 0
KNOR 080650Z 21005KT 10/02 A2993 RMK A01 T00960021  RH  061%=      5-min Rain = 0
KNOR 080655Z 21005KT 10/02 A2993 RMK A01 T00990021  RH  059%=      5-min Rain = 0
KNOR 080700Z 21004KT 10/02 A2992 RMK A01 T01030021  RH  058%=      5-min Rain = 0
KNOR 080705Z 20004KT 11/02 A2991 RMK A01 T01070021  RH  057%=      5-min Rain = 0
KNOR 080710Z 20004KT 11/02 A2991 RMK A01 T01070022  RH  056%=      5-min Rain = 0
KNOR 080715Z 20005KT 11/02 A2991 RMK A01 T01070022  RH  056%=      5-min Rain = 0
KNOR 080720Z 20004KT 11/02 A2991 RMK A01 T01070022  RH  057%=      5-min Rain = 0
KNOR 080725Z 21004KT 11/02 A2991 RMK A01 T01050023  RH  058%=      5-min Rain = 0
KNOR 080730Z 22001KT 11/02 A299 RMK A01 T01080023  RH  057%=      5-min Rain = 0
KNOR 080735Z 20001KT 11/02 A299 RMK A01 T01070022  RH  057%=      5-min Rain = 0
KNOR 080740Z 22001KT 10/02 A299 RMK A01 T01040022  RH  057%=      5-min Rain = 0
KNOR 080745Z 29001KT 11/02 A299 RMK A01 T01050022  RH  057%=      5-min Rain = 0
KNOR 080750Z 29002KT 10/02 A299 RMK A01 T01000022  RH  059%=      5-min Rain = 0
KNOR 080755Z 27003KT 11/02 A299 RMK A01 T01050023  RH  058%=      5-min Rain = 0
KNOR 080800Z 26002KT 10/02 A299 RMK A01 T01040023  RH  058%=      5-min Rain = 0
KNOR 080805Z 25002KT 11/02 A299 RMK A01 T01070023  RH  057%=      5-min Rain = 0
KNOR 080810Z 24002KT 11/02 A299 RMK A01 T01070023  RH  057%=      5-min Rain = 0
KNOR 080815Z 25004KT 11/03 A299 RMK A01 T01110025  RH  056%=      5-min Rain = 0
KNOR 080820Z 33004KT 10/02 A299 RMK A01 T01030022  RH  058%=      5-min Rain = 0
KNOR 080825Z 33005KT 10/02 A299 RMK A01 T00950022  RH  061%=      5-min Rain = 0
KNOR 080830Z 30005KT 10/03 A299 RMK A01 T01040025  RH  059%=      5-min Rain = 0
KNOR 080835Z 27006KT 11/03 A299 RMK A01 T01120026  RH  056%=      5-min Rain = 0
KNOR 080840Z 27005KT 11/03 A299 RMK A01 T01120026  RH  056%=      5-min Rain = 0
KNOR 080845Z 27005KT 11/03 A299 RMK A01 T01130026  RH  056%=      5-min Rain = 0
KNOR 080850Z 25005KT 11/02 A299 RMK A01 T01070023  RH  057%=      5-min Rain = 0
KNOR 080855Z 25006KT 10/02 A299 RMK A01 T01040023  RH  058%=      5-min Rain = 0
KNOR 080900Z 24008G17KT 11/03 A299 RMK A01 T01060025  RH  058%=      5-min Rain = 0
KNOR 080905Z 25010KT 12/03 A299 RMK A01 T01210027  RH  053%=      5-min Rain = 0
KNOR 080910Z 25011G17KT 13/03 A299 RMK A01 T01260027  RH  052%=      5-min Rain = 0
KNOR 080915Z 25010KT 13/03 A299 RMK A01 T01250026  RH  052%=      5-min Rain = 0
KNOR 080920Z 26009KT 13/03 A299 RMK A01 T01250025  RH  051%=      5-min Rain = 0
KNOR 080925Z 28006KT 12/02 A299 RMK A01 T01150023  RH  054%=      5-min Rain = 0
KNOR 080930Z 27009KT 12/03 A299 RMK A01 T01190025  RH  053%=      5-min Rain = 0
KNOR 080935Z 26009KT 13/03 A2989 RMK A01 T01250025  RH  051%=      5-min Rain = 0
KNOR 080940Z 25008KT 12/02 A2989 RMK A01 T01220024  RH  052%=      5-min Rain = 0
KNOR 080945Z 26006KT 11/02 A2989 RMK A01 T01140023  RH  054%=      5-min Rain = 0
KNOR 080950Z 30004KT 11/02 A2989 RMK A01 T01110021  RH  055%=      5-min Rain = 0
KNOR 080955Z 33003KT 10/02 A2989 RMK A01 T01030020  RH  057%=      5-min Rain = 0
KNOR 081000Z 33004KT 10/02 A299 RMK A01 T01010020  RH  058%=      5-min Rain = 0
KNOR 081005Z 33005KT 09/02 A2989 RMK A01 T00940019  RH  060%=      5-min Rain = 0
KNOR 081010Z 33006KT 09/02 A2989 RMK A01 T00910020  RH  062%=      5-min Rain = 0
KNOR 081015Z 33006KT 09/02 A299 RMK A01 T00880020  RH  064%=      5-min Rain = 0
KNOR 081020Z 33004KT 09/02 A2989 RMK A01 T00880021  RH  064%=      5-min Rain = 0
KNOR 081025Z 33004KT 09/02 A2988 RMK A01 T00910021  RH  062%=      5-min Rain = 0
KNOR 081030Z 29004KT 10/02 A2988 RMK A01 T00960021  RH  061%=      5-min Rain = 0
KNOR 081035Z 29005KT 10/02 A2988 RMK A01 T01010021  RH  059%=      5-min Rain = 0
KNOR 081040Z 29005KT 10/02 A2988 RMK A01 T00990021  RH  059%=      5-min Rain = 0
KNOR 081045Z 27006KT 10/02 A2988 RMK A01 T01000022  RH  059%=      5-min Rain = 0
KNOR 081050Z 26006KT 10/02 A2987 RMK A01 T01030023  RH  059%=      5-min Rain = 0
KNOR 081055Z 23005KT 10/02 A2986 RMK A01 T00980023  RH  060%=      5-min Rain = 0
KNOR 081100Z 22004KT 09/02 A2986 RMK A01 T00940022  RH  062%=      5-min Rain = 0
KNOR 081105Z 22005KT 10/02 A2985 RMK A01 T00960022  RH  061%=      5-min Rain = 0
KNOR 081110Z 22004KT 10/02 A2985 RMK A01 T00990023  RH  060%=      5-min Rain = 0
KNOR 081115Z 22004KT 10/02 A2986 RMK A01 T00980022  RH  060%=      5-min Rain = 0
KNOR 081120Z 24004KT 10/02 A2985 RMK A01 T01000022  RH  059%=      5-min Rain = 0
KNOR 081125Z 24003KT 10/02 A2985 RMK A01 T01030022  RH  058%=      5-min Rain = 0
KNOR 081130Z 25003KT 11/02 A2985 RMK A01 T01070022  RH  056%=      5-min Rain = 0
KNOR 081135Z 22002KT 11/02 A2984 RMK A01 T01080021  RH  056%=      5-min Rain = 0
KNOR 081140Z 19002KT 11/02 A2984 RMK A01 T01060022  RH  057%=      5-min Rain = 0
KNOR 081145Z 18002KT 10/02 A2984 RMK A01 T01040022  RH  058%=      5-min Rain = 0
KNOR 081150Z 19001KT 11/02 A2985 RMK A01 T01060021  RH  057%=      5-min Rain = 0
KNOR 081155Z 18001KT 11/02 A2985 RMK A01 T01070021  RH  056%=      5-min Rain = 0
KNOR 081200Z 21000KT 11/02 A2985 RMK A01 T01060021  RH  057%=      5-min Rain = 0
KNOR 081205Z 00000KT 10/02 A2986 RMK A01 T01030021  RH  058%=      5-min Rain = 0
KNOR 081210Z 29001KT 10/02 A2986 RMK A01 T01030021  RH  058%=      5-min Rain = 0
KNOR 081215Z 26002KT 11/02 A2986 RMK A01 T01110022  RH  055%=      5-min Rain = 0
KNOR 081220Z 26003KT 12/02 A2986 RMK A01 T01150022  RH  054%=      5-min Rain = 0
KNOR 081225Z 24003KT 11/02 A2985 RMK A01 T01120022  RH  055%=      5-min Rain = 0
KNOR 081230Z 26003KT 11/02 A2985 RMK A01 T01120023  RH  055%=      5-min Rain = 0
KNOR 081235Z 25004KT 12/02 A2985 RMK A01 T01150023  RH  054%=      5-min Rain = 0
KNOR 081240Z 24004KT 11/02 A2985 RMK A01 T01070022  RH  057%=      5-min Rain = 0
KNOR 081245Z 24005KT 10/02 A2985 RMK A01 T01040024  RH  058%=      5-min Rain = 0
KNOR 081250Z 24006KT 10/03 A2985 RMK A01 T01030025  RH  059%=      5-min Rain = 0
KNOR 081255Z 24007KT 11/03 A2985 RMK A01 T01080027  RH  058%=      5-min Rain = 0
KNOR 081300Z 24007KT 11/03 A2984 RMK A01 T01110027  RH  057%=      5-min Rain = 0
KNOR 081305Z 23008KT 12/03 A2984 RMK A01 T01150028  RH  056%=      5-min Rain = 0
KNOR 081310Z 24006KT 11/03 A2985 RMK A01 T01140028  RH  056%=      5-min Rain = 0
KNOR 081315Z 25006KT 11/03 A2984 RMK A01 T01120027  RH  057%=      5-min Rain = 0
KNOR 081320Z 25007KT 11/03 A2984 RMK A01 T01130027  RH  057%=      5-min Rain = 0
KNOR 081325Z 26007KT 12/03 A2985 RMK A01 T01150029  RH  056%=      5-min Rain = 0
KNOR 081330Z 26007KT 11/03 A2985 RMK A01 T01140029  RH  057%=      5-min Rain = 0
KNOR 081335Z 26006KT 11/03 A2984 RMK A01 T01140029  RH  057%=      5-min Rain = 0
KNOR 081340Z 25006KT 11/03 A2984 RMK A01 T01130029  RH  057%=      5-min Rain = 0
KNOR 081345Z 24006KT 11/03 A2984 RMK A01 T01140029  RH  057%=      5-min Rain = 0
KNOR 081350Z 23006KT 11/03 A2984 RMK A01 T01140029  RH  057%=      5-min Rain = 0
KNOR 081355Z 23007KT 12/03 A2984 RMK A01 T01190031  RH  056%=      5-min Rain = 0
KNOR 081400Z 23008KT 12/03 A2984 RMK A01 T01240033  RH  055%=      5-min Rain = 0
KNOR 081405Z 23008KT 13/04 A2984 RMK A01 T01270036  RH  055%=      5-min Rain = 0
KNOR 081410Z 22009KT 13/04 A2984 RMK A01 T01280037  RH  055%=      5-min Rain = 0
KNOR 081415Z 22007KT 13/04 A2983 RMK A01 T01290038  RH  055%=      5-min Rain = 0
KNOR 081420Z 23007KT 13/04 A2983 RMK A01 T01320038  RH  054%=      5-min Rain = 0
KNOR 081425Z 23007KT 14/04 A2983 RMK A01 T01350037  RH  053%=      5-min Rain = 0
KNOR 081430Z 24007KT 14/04 A2983 RMK A01 T01370038  RH  052%=      5-min Rain = 0
KNOR 081435Z 24007KT 14/04 A2983 RMK A01 T01380039  RH  052%=      5-min Rain = 0
KNOR 081440Z 24008KT 14/04 A2983 RMK A01 T01390039  RH  052%=      5-min Rain = 0
KNOR 081445Z 25007KT 14/04 A2983 RMK A01 T01400040  RH  052%=      5-min Rain = 0
KNOR 081450Z 24008KT 14/04 A2983 RMK A01 T01430040  RH  051%=      5-min Rain = 0
KNOR 081455Z 24009KT 15/04 A2983 RMK A01 T01480039  RH  049%=      5-min Rain = 0
KNOR 081500Z 24007KT 15/04 A2983 RMK A01 T01500039  RH  048%=      5-min Rain = 0
KNOR 081505Z 24008KT 15/04 A2983 RMK A01 T01520039  RH  048%=      5-min Rain = 0
KNOR 081510Z 24009KT 16/04 A2983 RMK A01 T01550039  RH  047%=      5-min Rain = 0
KNOR 081515Z 24009KT 16/04 A2983 RMK A01 T01580039  RH  046%=      5-min Rain = 0
KNOR 081520Z 25010KT 16/04 A2983 RMK A01 T01620039  RH  045%=      5-min Rain = 0
KNOR 081525Z 24011KT 16/04 A2983 RMK A01 T01630037  RH  044%=      5-min Rain = 0
KNOR 081530Z 25011KT 16/04 A2983 RMK A01 T01630036  RH  043%=      5-min Rain = 0
KNOR 081535Z 24010KT 16/04 A2983 RMK A01 T01640036  RH  043%=      5-min Rain = 0
KNOR 081540Z 24012KT 17/04 A2983 RMK A01 T01660036  RH  042%=      5-min Rain = 0
KNOR 081545Z 24011KT 17/04 A2983 RMK A01 T01700036  RH  042%=      5-min Rain = 0
KNOR 081550Z 25013KT 17/04 A2984 RMK A01 T01730036  RH  041%=      5-min Rain = 0
KNOR 081555Z 25011KT 17/04 A2983 RMK A01 T01730036  RH  041%=      5-min Rain = 0
KNOR 081600Z 25013KT 17/04 A2983 RMK A01 T01740035  RH  040%=      5-min Rain = 0
KNOR 081605Z 25013KT 18/03 A2983 RMK A01 T01750034  RH  040%=      5-min Rain = 0
KNOR 081610Z 26012G17KT 18/03 A2983 RMK A01 T01780034  RH  039%=      5-min Rain = 0
KNOR 081615Z 26013G18KT 18/03 A2983 RMK A01 T01820033  RH  038%=      5-min Rain = 0
KNOR 081620Z 26015G22KT 18/03 A2983 RMK A01 T01830031  RH  037%=      5-min Rain = 0
KNOR 081625Z 26015G20KT 18/03 A2983 RMK A01 T01830031  RH  037%=      5-min Rain = 0
KNOR 081630Z 27012KT 19/03 A2983 RMK A01 T01850031  RH  037%=      5-min Rain = 0
KNOR 081635Z 27014KT 19/03 A2983 RMK A01 T01860031  RH  036%=      5-min Rain = 0
KNOR 081640Z 27014KT 19/03 A2982 RMK A01 T01860030  RH  036%=      5-min Rain = 0
KNOR 081645Z 28013KT 19/03 A2982 RMK A01 T01890032  RH  036%=      5-min Rain = 0
KNOR 081650Z 28014G19KT 19/03 A2982 RMK A01 T01900031  RH  035%=      5-min Rain = 0
KNOR 081655Z 28013KT 19/03 A2982 RMK A01 T01910032  RH  036%=      5-min Rain = 0
KNOR 081700Z 28011KT 19/03 A2981 RMK A01 T01930033  RH  035%=      5-min Rain = 0
KNOR 081705Z 29011KT 20/03 A2981 RMK A01 T01950034  RH  035%=      5-min Rain = 0
KNOR 081710Z 28012KT 19/03 A2982 RMK A01 T01920033  RH  036%=      5-min Rain = 0
KNOR 081715Z 29012KT 19/03 A2981 RMK A01 T01930034  RH  035%=      5-min Rain = 0
KNOR 081720Z 28011KT 19/03 A2981 RMK A01 T01940034  RH  035%=      5-min Rain = 0
KNOR 081725Z 28011KT 19/03 A2981 RMK A01 T01920034  RH  036%=      5-min Rain = 0
KNOR 081730Z 27010KT 19/04 A2981 RMK A01 T01920035  RH  036%=      5-min Rain = 0
KNOR 081735Z 27007KT 20/04 A2981 RMK A01 T01950036  RH  036%=      5-min Rain = 0
KNOR 081740Z 27009KT 20/04 A2981 RMK A01 T01960036  RH  035%=      5-min Rain = 0
KNOR 081745Z 28008KT 20/04 A298 RMK A01 T01990036  RH  035%=      5-min Rain = 0
KNOR 081750Z 28008KT 20/04 A298 RMK A01 T02030037  RH  034%=      5-min Rain = 0
KNOR 081755Z 29008KT 21/04 A298 RMK A01 T02060037  RH  034%=      5-min Rain = 0
KNOR 081800Z 29007KT 21/04 A2979 RMK A01 T02110038  RH  033%=      5-min Rain = 0
KNOR 081805Z 27008G15KT 22/04 A2979 RMK A01 T02180038  RH  031%=      5-min Rain = 0
KNOR 081810Z 26015G23KT 23/03 A2978 RMK A01 T02260034  RH  029%=      5-min Rain = 0
KNOR 081815Z 25015G20KT 23/03 A2977 RMK A01 T02250032  RH  029%=      5-min Rain = 0
KNOR 081820Z 26015KT 23/03 A2977 RMK A01 T02250032  RH  029%=      5-min Rain = 0
KNOR 081825Z 26015G21KT 23/03 A2977 RMK A01 T02280031  RH  028%=      5-min Rain = 0
KNOR 081830Z 26018G24KT 23/03 A2977 RMK A01 T02310030  RH  027%=      5-min Rain = 0
KNOR 081835Z 27018G24KT 23/03 A2976 RMK A01 T02330030  RH  027%=      5-min Rain = 0
KNOR 081840Z 26018G26KT 23/03 A2976 RMK A01 T02280030  RH  028%=      5-min Rain = 0
KNOR 081845Z 26022G31KT 22/03 A2975 RMK A01 T02230028  RH  028%=      5-min Rain = 0
KNOR 081850Z 27021G29KT 23/03 A2975 RMK A01 T02290028  RH  027%=      5-min Rain = 0
KNOR 081855Z 26017G25KT 23/03 A2974 RMK A01 T02330030  RH  027%=      5-min Rain = 0
KNOR 081900Z 27016G24KT 24/03 A2974 RMK A01 T02390030  RH  026%=      5-min Rain = 0
KNOR 081905Z 27017G23KT 24/03 A2973 RMK A01 T02390029  RH  026%=      5-min Rain = 0
KNOR 081910Z 26018G25KT 24/03 A2973 RMK A01 T02420027  RH  025%=      5-min Rain = 0
KNOR 081915Z 26021G30KT 24/03 A2973 RMK A01 T02410025  RH  025%=      5-min Rain = 0
KNOR 081920Z 26018G23KT 24/03 A2973 RMK A01 T02390025  RH  025%=      5-min Rain = 0
KNOR 081925Z 26017G24KT 24/03 A2973 RMK A01 T02430026  RH  025%=      5-min Rain = 0
KNOR 081930Z 26018G24KT 24/02 A2973 RMK A01 T02420024  RH  024%=      5-min Rain = 0
KNOR 081935Z 26022G29KT 24/02 A2972 RMK A01 T02410019  RH  024%=      5-min Rain = 0
KNOR 081940Z 26023G32KT 24/02 A2973 RMK A01 T02370020  RH  024%=      5-min Rain = 0
KNOR 081945Z 26020G28KT 24/02 A2972 RMK A01 T02400021  RH  024%=      5-min Rain = 0
KNOR 081950Z 25021G33KT 24/02 A2972 RMK A01 T02420020  RH  024%=      5-min Rain = 0
KNOR 081955Z 26022G31KT 24/02 A2972 RMK A01 T02390019  RH  024%=      5-min Rain = 0
KNOR 082000Z 26022G27KT 24/02 A2971 RMK A01 T02390019  RH  024%=      5-min Rain = 0
KNOR 082005Z 26020G25KT 24/02 A2971 RMK A01 T02400019  RH  024%=      5-min Rain = 0
KNOR 082010Z 26019G28KT 24/02 A2971 RMK A01 T02430020  RH  024%=      5-min Rain = 0
KNOR 082015Z 26020G30KT 24/02 A2971 RMK A01 T02420021  RH  024%=      5-min Rain = 0
KNOR 082020Z 25020G28KT 24/02 A2971 RMK A01 T02440023  RH  024%=      5-min Rain = 0
KNOR 082025Z 26020G29KT 24/02 A2971 RMK A01 T02410023  RH  024%=      5-min Rain = 0
KNOR 082030Z 26021G28KT 24/02 A2971 RMK A01 T02400023  RH  024%=      5-min Rain = 0
KNOR 082035Z 26021G27KT 24/02 A297 RMK A01 T02400023  RH  024%=      5-min Rain = 0
KNOR 082040Z 25019G26KT 24/02 A297 RMK A01 T02400022  RH  024%=      5-min Rain = 0
KNOR 082045Z 25021G27KT 24/02 A297 RMK A01 T02410021  RH  024%=      5-min Rain = 0
KNOR 082050Z 25021G27KT 24/02 A2969 RMK A01 T02420020  RH  024%=      5-min Rain = 0
KNOR 082055Z 25021G27KT 24/02 A2969 RMK A01 T02440020  RH  023%=      5-min Rain = 0
KNOR 082100Z 25019G26KT 25/02 A2969 RMK A01 T02480021  RH  023%=      5-min Rain = 0
KNOR 082105Z 25022G28KT 25/02 A2969 RMK A01 T02470021  RH  023%=      5-min Rain = 0
KNOR 082110Z 26021G30KT 25/02 A2969 RMK A01 T02490022  RH  023%=      5-min Rain = 0
KNOR 082115Z 25019G29KT 25/02 A2969 RMK A01 T02520023  RH  023%=      5-min Rain = 0
KNOR 082120Z 26020G26KT 25/02 A2968 RMK A01 T02500023  RH  023%=      5-min Rain = 0
KNOR 082125Z 25024G33KT 25/02 A2968 RMK A01 T02480022  RH  023%=      5-min Rain = 0
KNOR 082130Z 25021G28KT 25/02 A2968 RMK A01 T02470023  RH  023%=      5-min Rain = 0
KNOR 082135Z 26020G29KT 25/02 A2968 RMK A01 T02500023  RH  023%=      5-min Rain = 0
KNOR 082140Z 26021G27KT 25/02 A2968 RMK A01 T02490023  RH  023%=      5-min Rain = 0
KNOR 082145Z 25023G31KT 25/02 A2969 RMK A01 T02460023  RH  024%=      5-min Rain = 0
KNOR 082150Z 26024G31KT 24/02 A2969 RMK A01 T02440022  RH  024%=      5-min Rain = 0
KNOR 082155Z 26021G29KT 24/02 A2969 RMK A01 T02420023  RH  024%=      5-min Rain = 0
KNOR 082200Z 26019G27KT 24/02 A2969 RMK A01 T02400024  RH  025%=      5-min Rain = 0
KNOR 082205Z 26020G27KT 24/03 A2969 RMK A01 T02400025  RH  025%=      5-min Rain = 0
KNOR 082210Z 26017G26KT 24/03 A2968 RMK A01 T02390026  RH  025%=      5-min Rain = 0
KNOR 082215Z 26018G26KT 24/03 A2968 RMK A01 T02380027  RH  025%=      5-min Rain = 0
KNOR 082220Z 26020G27KT 24/03 A2968 RMK A01 T02380027  RH  026%=      5-min Rain = 0
KNOR 082225Z 26019G28KT 24/03 A2968 RMK A01 T02360027  RH  026%=      5-min Rain = 0
KNOR 082230Z 26020G27KT 24/03 A2968 RMK A01 T02360028  RH  026%=      5-min Rain = 0
KNOR 082235Z 26019G26KT 24/03 A2969 RMK A01 T02350028  RH  026%=      5-min Rain = 0
KNOR 082240Z 26017G23KT 23/03 A2969 RMK A01 T02330028  RH  026%=      5-min Rain = 0
KNOR 082245Z 26019G25KT 23/03 A2969 RMK A01 T02320027  RH  027%=      5-min Rain = 0
KNOR 082250Z 26021G28KT 23/03 A2969 RMK A01 T02310028  RH  027%=      5-min Rain = 0
KNOR 082255Z 26018G25KT 23/03 A2969 RMK A01 T02290028  RH  027%=      5-min Rain = 0
KNOR 082300Z 25018G26KT 23/03 A2969 RMK A01 T02290029  RH  027%=      5-min Rain = 0
KNOR 082305Z 25018G24KT 23/03 A2969 RMK A01 T02270030  RH  028%=      5-min Rain = 0
KNOR 082310Z 25015G20KT 22/03 A2969 RMK A01 T02240031  RH  029%=      5-min Rain = 0
KNOR 082315Z 25016G24KT 22/03 A2969 RMK A01 T02220032  RH  029%=      5-min Rain = 0
KNOR 082320Z 25017G24KT 22/03 A2969 RMK A01 T02210032  RH  029%=      5-min Rain = 0
KNOR 082325Z 25017G24KT 22/03 A2969 RMK A01 T02190033  RH  030%=      5-min Rain = 0
KNOR 082330Z 25021G26KT 22/03 A2969 RMK A01 T02200034  RH  030%=      5-min Rain = 0
KNOR 082335Z 25020G27KT 22/03 A2968 RMK A01 T02190034  RH  030%=      5-min Rain = 0
KNOR 082340Z 25021G29KT 22/03 A2969 RMK A01 T02180034  RH  030%=      5-min Rain = 0
KNOR 082345Z 25022G29KT 22/03 A2969 RMK A01 T02190034  RH  030%=      5-min Rain = 0
KNOR 082350Z 25019G27KT 22/04 A2969 RMK A01 T02170035  RH  031%=      5-min Rain = 0
KNOR 082355Z 25018G23KT 22/04 A2969 RMK A01 T02150035  RH  031%=      5-min Rain = 0
KNOR 090000Z 24018G24KT 21/04 A2969 RMK A01 T02140035  RH  031%=      5-min Rain = 0
KNOR 090005Z 24017G24KT 21/04 A2969 RMK A01 T02130035  RH  032%=      5-min Rain = 0
KNOR 090010Z 25019G28KT 21/04 A2969 RMK A01 T02130036  RH  032%=      5-min Rain = 0
KNOR 090015Z 24020G26KT 21/04 A2969 RMK A01 T02140036  RH  032%=      5-min Rain = 0
KNOR 090020Z 24020G27KT 21/04 A2969 RMK A01 T02120037  RH  032%=      5-min Rain = 0
KNOR 090025Z 24020G26KT 21/04 A2969 RMK A01 T02130037  RH  032%=      5-min Rain = 0
KNOR 090030Z 24019G24KT 21/04 A297 RMK A01 T02120038  RH  032%=      5-min Rain = 0
KNOR 090035Z 24019G26KT 21/04 A297 RMK A01 T02120038  RH  033%=      5-min Rain = 0
KNOR 090040Z 24018G24KT 21/04 A297 RMK A01 T02110039  RH  033%=      5-min Rain = 0
KNOR 090045Z 25019G27KT 21/04 A297 RMK A01 T02120039  RH  033%=      5-min Rain = 0
KNOR 090050Z 24018G24KT 21/04 A297 RMK A01 T02110038  RH  033%=      5-min Rain = 0
KNOR 090055Z 24018G27KT 21/04 A297 RMK A01 T02080038  RH  033%=      5-min Rain = 0
KNOR 090100Z 24018G23KT 21/04 A297 RMK A01 T02070038  RH  034%=      5-min Rain = 0
KNOR 090105Z 24018G25KT 21/04 A297 RMK A01 T02070038  RH  034%=      5-min Rain = 0
KNOR 090110Z 25019G25KT 21/04 A297 RMK A01 T02070038  RH  033%=      5-min Rain = 0
KNOR 090115Z 25019G24KT 21/04 A2971 RMK A01 T02060038  RH  034%=      5-min Rain = 0
KNOR 090120Z 25019G25KT 21/04 A2971 RMK A01 T02050038  RH  034%=      5-min Rain = 0
KNOR 090125Z 25018G24KT 20/04 A2971 RMK A01 T02040038  RH  034%=      5-min Rain = 0
KNOR 090130Z 25018G26KT 20/04 A2971 RMK A01 T02040038  RH  034%=      5-min Rain = 0
KNOR 090135Z 25018G23KT 20/04 A2971 RMK A01 T02020038  RH  035%=      5-min Rain = 0
KNOR 090140Z 25018G25KT 20/04 A2971 RMK A01 T02010038  RH  035%=      5-min Rain = 0
KNOR 090145Z 25017G23KT 20/04 A2971 RMK A01 T01990038  RH  035%=      5-min Rain = 0
KNOR 090150Z 25017KT 20/04 A2971 RMK A01 T01970038  RH  036%=      5-min Rain = 0
KNOR 090155Z 25016G21KT 20/04 A2971 RMK A01 T01960039  RH  036%=      5-min Rain = 0
KNOR 090200Z 25018G23KT 20/04 A2971 RMK A01 T01950039  RH  036%=      5-min Rain = 0
KNOR 090205Z 25019G24KT 20/04 A2971 RMK A01 T01960039  RH  036%=      5-min Rain = 0
KNOR 090210Z 25017G23KT 20/04 A2971 RMK A01 T01950039  RH  036%=      5-min Rain = 0
KNOR 090215Z 25017G22KT 19/04 A2971 RMK A01 T01940040  RH  037%=      5-min Rain = 0
KNOR 090220Z 25017G22KT 19/04 A2971 RMK A01 T01930040  RH  037%=      5-min Rain = 0
KNOR 090225Z 25018G25KT 19/04 A2971 RMK A01 T01930040  RH  037%=      5-min Rain = 0
KNOR 090230Z 25019G25KT 19/04 A2971 RMK A01 T01930040  RH  037%=      5-min Rain = 0
KNOR 090235Z 25017G23KT 19/04 A2972 RMK A01 T01910040  RH  038%=      5-min Rain = 0
KNOR 090240Z 25018G23KT 19/04 A2972 RMK A01 T01910041  RH  038%=      5-min Rain = 0
KNOR 090245Z 25019G25KT 19/04 A2971 RMK A01 T01890041  RH  038%=      5-min Rain = 0
KNOR 090250Z 25019G27KT 19/04 A2971 RMK A01 T01900041  RH  038%=      5-min Rain = 0
KNOR 090255Z 25020G25KT 19/04 A2971 RMK A01 T01890041  RH  038%=      5-min Rain = 0
KNOR 090300Z 25020G28KT 19/04 A2971 RMK A01 T01890040  RH  038%=      5-min Rain = 0
KNOR 090305Z 25019G24KT 19/04 A2971 RMK A01 T01860040  RH  039%=      5-min Rain = 0
KNOR 090310Z 25020G26KT 19/04 A297 RMK A01 T01860039  RH  039%=      5-min Rain = 0
KNOR 090315Z 25022G30KT 19/04 A297 RMK A01 T01860038  RH  038%=      5-min Rain = 0
KNOR 090320Z 25021G32KT 19/04 A297 RMK A01 T01860037  RH  038%=      5-min Rain = 0
KNOR 090325Z 25022G28KT 19/04 A2971 RMK A01 T01850036  RH  038%=      5-min Rain = 0
KNOR 090330Z 25022G30KT 18/03 A2971 RMK A01 T01840033  RH  037%=      5-min Rain = 0
KNOR 090335Z 26023G30KT 19/03 A297 RMK A01 T01850030  RH  036%=      5-min Rain = 0
KNOR 090340Z 26023G31KT 18/03 A2971 RMK A01 T01840028  RH  036%=      5-min Rain = 0
KNOR 090345Z 26020G27KT 18/03 A2971 RMK A01 T01830027  RH  036%=      5-min Rain = 0
KNOR 090350Z 26023G31KT 18/03 A2971 RMK A01 T01830025  RH  035%=      5-min Rain = 0
KNOR 090355Z 26022G30KT 18/02 A2971 RMK A01 T01820022  RH  035%=      5-min Rain = 0
KNOR 090400Z 25022G32KT 18/02 A297 RMK A01 T01820020  RH  034%=      5-min Rain = 0
KNOR 090405Z 25023G31KT 18/02 A297 RMK A01 T01830017  RH  033%=      5-min Rain = 0
KNOR 090410Z 25024G33KT 18/02 A297 RMK A01 T01840015  RH  033%=      5-min Rain = 0
KNOR 090415Z 25022G30KT 18/02 A297 RMK A01 T01820015  RH  033%=      5-min Rain = 0
KNOR 090420Z 26021G29KT 18/01 A297 RMK A01 T01810014  RH  033%=      5-min Rain = 0
KNOR 090425Z 26020G26KT 18/01 A297 RMK A01 T01800014  RH  033%=      5-min Rain = 0
KNOR 090430Z 26019G26KT 18/02 A297 RMK A01 T01790015  RH  034%=      5-min Rain = 0
KNOR 090435Z 26020G27KT 18/02 A297 RMK A01 T01780016  RH  034%=      5-min Rain = 0
KNOR 090440Z 26019G25KT 18/02 A2971 RMK A01 T01770016  RH  035%=      5-min Rain = 0
KNOR 090445Z 26018G25KT 18/02 A2971 RMK A01 T01750017  RH  035%=      5-min Rain = 0
KNOR 090450Z 26018G26KT 17/02 A2971 RMK A01 T01730017  RH  036%=      5-min Rain = 0
KNOR 090455Z 26019G25KT 17/02 A2971 RMK A01 T01740017  RH  035%=      5-min Rain = 0
KNOR 090500Z 26018G24KT 17/02 A2971 RMK A01 T01720017  RH  036%=      5-min Rain = 0
KNOR 090505Z 26018G23KT 17/02 A2971 RMK A01 T01710017  RH  036%=      5-min Rain = 0
KNOR 090510Z 26018G25KT 17/02 A2971 RMK A01 T01710018  RH  036%=      5-min Rain = 0
KNOR 090515Z 26017G24KT 17/02 A2972 RMK A01 T01700019  RH  037%=      5-min Rain = 0
KNOR 090520Z 26017G23KT 17/02 A2972 RMK A01 T01690020  RH  037%=      5-min Rain = 0
KNOR 090525Z 26018G24KT 17/02 A2972 RMK A01 T01690021  RH  038%=      5-min Rain = 0
KNOR 090530Z 26017G23KT 17/02 A2971 RMK A01 T01670022  RH  038%=      5-min Rain = 0
KNOR 090535Z 26018G25KT 17/02 A2971 RMK A01 T01670024  RH  039%=      5-min Rain = 0
KNOR 090540Z 26018G23KT 17/02 A2971 RMK A01 T01670024  RH  039%=      5-min Rain = 0
KNOR 090545Z 26016G26KT 17/03 A2971 RMK A01 T01650025  RH  039%=      5-min Rain = 0
KNOR 090550Z 25018G23KT 17/03 A2971 RMK A01 T01650025  RH  040%=      5-min Rain = 0
KNOR 090555Z 25018G23KT 16/03 A2971 RMK A01 T01640025  RH  040%=      5-min Rain = 0

Page generated in 0.0093 seconds.